Kamp-Lintfort Airport

EDLC · North Rhine-Westphalia, 德国

罗盘
风向 的 Kamp-Lintfort Airport 7/25
风: 3 kt, 1 beaufort

1 kt

3 kt
改变
0 ft 1.000 2.000 3.000 4.000 5.000
Cloud Cloud Cloud Cloud Cloud Cloud Cloud Cloud
OVC 2.300
METAR EDLV 280950Z VRB03KT 9999 OVC023 01/M04 Q1031

METAR Kamp-Lintfort Airport - EDLC

Kamp-Lintfort Airport是,德国中的小机场。 该机场有一条跑道: 7/25. 该领域的国际民航组织标志是EDLC.

这份报告是针对2023年1月28日 10:50, 当地时间在Weeze Airport进行的。

机场观察

可变方向的风很小或没有风。

可见度为10 km 或者更多。

有乌云密布在2.300 ft的高度。 破损或更高的上限为2.300 ft。

温度为1 °C,阵风为-2 °C。 露点为-4 °C,相对湿度为70%。 海平面上的气压为1031 hPa (QNH)。

白天

今天,太阳从08:18升起,在17:15降落。 这适用于Kamp-Lintfort Airport,世界夏令时可能有所不同。 当地时间与世界标准时间之间的时差为+1 小时。 当前,没有夏令时有效。

公司介绍

我们没有关于这个机场的公司信息。

体会

到Vliegles.nl去找飞行课程,跳伞和其他飞行体验。 浏览页面,了解Kamp-Lintfort Airport附近所有可用的活动。 你也可以使用搜索功能来寻找你所在地附近的特定飞行课程、跳伞或其他飞行体验。

跑道

Id 标题 侧风 逆风 侧风 %
7/25 070°-250° 3 kt 1 kt 94 %

逆风成分最大的方向会被突出显示,并用于横风计算。 这并不一定意味着这个方向在使用。

乌云

2.300 ft OVC 乌云密布

温度 & 天气

温度 1 °C
露点 -4 °C
相对湿度 70%
风寒 -2 °C
Kp-index 1 (0-9)

白天

日出
08:19
中午
12:48
日落
17:16 (6:10)

小工具

你想在你的网站上有一个关于Kamp-Lintfort Airport的当前航空天气(METAR)的小部件吗?

显示HTML代码

我们和第三方通过cookies跟踪您在我们网站上的互联网行为。如果你继续,我们认为你同意我们的饼干政策